createdAt,value
2023-02-04T00:00:26.413Z,4.50
2023-02-04T00:02:53.721Z,4.50
2023-02-04T00:05:21.826Z,4.50
2023-02-04T00:07:49.124Z,4.50
2023-02-04T00:10:16.460Z,4.50
2023-02-04T00:12:43.662Z,4.50
2023-02-04T00:15:10.913Z,4.40
2023-02-04T00:17:39.361Z,4.50
2023-02-04T00:20:06.978Z,4.50
2023-02-04T00:22:34.134Z,4.50
2023-02-04T00:25:01.431Z,4.50
2023-02-04T00:27:28.714Z,4.50
2023-02-04T00:29:57.407Z,4.40
2023-02-04T00:32:25.101Z,4.40
2023-02-04T00:34:54.779Z,4.40
2023-02-04T00:37:22.135Z,4.40
2023-02-04T00:39:49.490Z,4.40
2023-02-04T00:42:16.828Z,4.30
2023-02-04T00:44:44.183Z,4.30
2023-02-04T00:47:11.367Z,4.30
2023-02-04T00:49:38.592Z,4.40
2023-02-04T00:52:05.830Z,4.40
2023-02-04T00:54:33.080Z,4.40
2023-02-04T00:57:01.861Z,4.40
2023-02-04T00:59:29.873Z,4.30
2023-02-04T01:01:57.102Z,4.40
2023-02-04T01:04:24.382Z,4.40
2023-02-04T01:06:52.096Z,4.30
2023-02-04T01:09:19.601Z,4.30
2023-02-04T01:11:46.855Z,4.30
2023-02-04T01:14:14.632Z,4.30
2023-02-04T01:16:41.872Z,4.20
2023-02-04T01:19:09.140Z,4.20
2023-02-04T01:21:36.617Z,4.30
2023-02-04T01:24:04.562Z,4.10
2023-02-04T01:26:33.558Z,4.10
2023-02-04T01:29:00.730Z,4.10
2023-02-04T01:31:28.389Z,4.10
2023-02-04T01:33:55.603Z,4.10
2023-02-04T01:36:22.962Z,4.20
2023-02-04T01:38:51.244Z,4.20
2023-02-04T01:41:18.921Z,4.10
2023-02-04T01:43:47.730Z,4.20
2023-02-04T01:46:15.783Z,4.30
2023-02-04T01:48:43.187Z,4.40
2023-02-04T01:51:17.070Z,4.40
2023-02-04T01:53:44.635Z,4.40
2023-02-04T01:56:17.706Z,4.40
2023-02-04T01:58:46.020Z,4.50
2023-02-04T02:01:15.929Z,4.50
2023-02-04T02:03:43.503Z,4.60
2023-02-04T02:06:11.214Z,4.60
2023-02-04T02:08:38.633Z,4.60
2023-02-04T02:11:06.009Z,4.60
2023-02-04T02:13:33.331Z,4.70
2023-02-04T02:16:00.833Z,4.70
2023-02-04T02:18:28.082Z,4.80
2023-02-04T02:20:56.136Z,4.70
2023-02-04T02:23:45.414Z,4.70
2023-02-04T02:26:14.190Z,4.80
2023-02-04T02:28:41.958Z,4.70
2023-02-04T02:31:09.465Z,4.70
2023-02-04T02:33:37.264Z,4.70
2023-02-04T02:36:05.128Z,4.80
2023-02-04T02:38:32.557Z,4.80
2023-02-04T02:41:02.130Z,4.70
2023-02-04T02:43:30.155Z,4.70
2023-02-04T02:46:00.050Z,4.80
2023-02-04T02:48:27.450Z,4.90
2023-02-04T02:50:54.930Z,4.70
2023-02-04T02:53:22.954Z,4.80
2023-02-04T02:55:51.415Z,4.80
2023-02-04T02:58:34.336Z,4.70
2023-02-04T03:01:04.399Z,4.70
2023-02-04T03:03:35.490Z,4.60
2023-02-04T03:06:16.817Z,4.60
2023-02-04T03:08:44.779Z,4.50
2023-02-04T03:11:12.098Z,4.50
2023-02-04T03:13:40.440Z,4.60
2023-02-04T03:16:08.753Z,4.60
2023-02-04T03:18:37.394Z,4.50
2023-02-04T03:21:06.596Z,4.50
2023-02-04T03:23:36.450Z,4.50
2023-02-04T03:26:05.829Z,4.50
2023-02-04T03:28:33.666Z,4.50
2023-02-04T03:31:01.178Z,4.50
2023-02-04T03:33:31.799Z,4.50
2023-02-04T03:35:59.470Z,4.50
2023-02-04T03:38:26.819Z,4.50
2023-02-04T03:40:54.098Z,4.50
2023-02-04T03:43:21.327Z,4.50
2023-02-04T03:45:48.624Z,4.50
2023-02-04T03:48:15.911Z,4.50
2023-02-04T03:50:43.326Z,4.50
2023-02-04T03:53:11.092Z,4.50
2023-02-04T03:55:38.456Z,4.50
2023-02-04T03:58:05.914Z,4.60
2023-02-04T04:00:33.708Z,4.60
2023-02-04T04:03:01.136Z,4.60
2023-02-04T04:05:28.664Z,4.50
2023-02-04T04:07:56.031Z,4.60
2023-02-04T04:10:23.339Z,4.50
2023-02-04T04:12:50.579Z,4.50
2023-02-04T04:15:18.018Z,4.50
2023-02-04T04:17:45.274Z,4.40
2023-02-04T04:20:13.150Z,4.30
2023-02-04T04:22:40.434Z,4.40
2023-02-04T04:25:08.517Z,4.30
2023-02-04T04:27:35.723Z,4.30
2023-02-04T04:30:04.044Z,4.20
2023-02-04T04:32:31.323Z,4.20
2023-02-04T04:34:58.589Z,4.10
2023-02-04T04:37:25.794Z,4.00
2023-02-04T04:39:53.039Z,4.00
2023-02-04T04:42:20.334Z,4.00
2023-02-04T04:44:47.532Z,4.00
2023-02-04T04:47:14.734Z,3.90
2023-02-04T04:49:41.985Z,3.90
2023-02-04T04:52:09.229Z,3.80
2023-02-04T04:54:36.436Z,3.70
2023-02-04T04:57:03.667Z,3.70
2023-02-04T04:59:30.889Z,3.70
2023-02-04T05:01:58.107Z,3.70
2023-02-04T05:04:25.343Z,3.70
2023-02-04T05:06:52.562Z,3.60
2023-02-04T05:09:19.761Z,3.70
2023-02-04T05:11:47.848Z,3.60
2023-02-04T05:14:15.103Z,3.60
2023-02-04T05:16:42.339Z,3.60
2023-02-04T05:19:09.565Z,3.50
2023-02-04T05:21:36.770Z,3.50
2023-02-04T05:24:06.344Z,3.50
2023-02-04T05:26:33.927Z,3.50
2023-02-04T05:29:01.190Z,3.40
2023-02-04T05:31:28.875Z,3.40
2023-02-04T05:33:56.887Z,3.40
2023-02-04T05:36:24.137Z,3.50
2023-02-04T05:38:51.453Z,3.50
2023-02-04T05:41:18.710Z,3.60
2023-02-04T05:43:45.969Z,3.60
2023-02-04T05:46:13.232Z,3.70
2023-02-04T05:48:40.584Z,3.70
2023-02-04T05:51:07.787Z,3.70
2023-02-04T05:53:34.998Z,3.70
2023-02-04T05:56:02.357Z,3.80
2023-02-04T05:58:33.355Z,3.70
2023-02-04T06:01:01.640Z,3.80
2023-02-04T06:03:30.478Z,3.70
2023-02-04T06:05:57.797Z,3.80
2023-02-04T06:08:25.134Z,3.80
2023-02-04T06:10:52.328Z,3.80
2023-02-04T06:13:19.551Z,3.80
2023-02-04T06:15:46.778Z,3.80
2023-02-04T06:18:14.043Z,3.80
2023-02-04T06:20:41.287Z,3.90
2023-02-04T06:23:08.592Z,3.90
2023-02-04T06:25:35.864Z,3.90
2023-02-04T06:28:03.968Z,3.90
2023-02-04T06:30:31.850Z,3.90
2023-02-04T06:32:59.559Z,4.00
2023-02-04T06:35:26.776Z,4.00
2023-02-04T06:37:53.963Z,4.00
2023-02-04T06:40:21.200Z,3.90
2023-02-04T06:42:48.452Z,3.90
2023-02-04T06:45:15.705Z,3.90
2023-02-04T06:47:42.917Z,4.00
2023-02-04T06:50:10.570Z,4.00
2023-02-04T06:52:37.884Z,4.00
2023-02-04T06:55:05.409Z,4.00
2023-02-04T06:57:32.609Z,4.00
2023-02-04T07:00:00.212Z,4.00
2023-02-04T07:02:27.483Z,4.00
2023-02-04T07:04:54.740Z,3.90
2023-02-04T07:07:21.940Z,4.00
2023-02-04T07:09:49.170Z,4.00
2023-02-04T07:12:16.553Z,4.00
2023-02-04T07:14:43.851Z,4.00
2023-02-04T07:17:11.093Z,4.00
2023-02-04T07:19:38.814Z,4.10
2023-02-04T07:22:06.050Z,4.10
2023-02-04T07:24:33.230Z,4.00
2023-02-04T07:27:02.545Z,4.10
2023-02-04T07:29:29.915Z,4.10
2023-02-04T07:31:57.232Z,4.10
2023-02-04T07:34:24.637Z,4.10
2023-02-04T07:36:51.892Z,4.20
2023-02-04T07:39:19.094Z,4.20
2023-02-04T07:41:46.295Z,4.20
2023-02-04T07:44:15.730Z,4.20
2023-02-04T07:46:43.046Z,4.10
2023-02-04T07:49:10.322Z,4.10
2023-02-04T07:51:37.556Z,4.20
2023-02-04T07:54:04.762Z,4.20
2023-02-04T07:56:31.960Z,4.20
2023-02-04T07:58:59.144Z,4.10
2023-02-04T08:01:26.373Z,4.20
2023-02-04T08:03:53.610Z,4.10
2023-02-04T08:06:20.835Z,4.10
2023-02-04T08:08:48.078Z,4.10
2023-02-04T08:11:15.253Z,4.10
2023-02-04T08:13:42.420Z,4.20
2023-02-04T08:16:11.635Z,4.20
2023-02-04T08:18:39.169Z,4.20
2023-02-04T08:21:06.583Z,4.20
2023-02-04T08:23:33.810Z,4.30
2023-02-04T08:26:01.051Z,4.30
2023-02-04T08:28:28.286Z,4.10
2023-02-04T08:30:56.219Z,4.30
2023-02-04T08:33:23.523Z,4.30
2023-02-04T08:35:52.010Z,4.40
2023-02-04T08:38:19.360Z,4.50
2023-02-04T08:40:46.782Z,4.60
2023-02-04T08:43:14.039Z,4.60
2023-02-04T08:45:41.227Z,4.70
2023-02-04T08:48:09.462Z,4.80
2023-02-04T08:50:38.968Z,4.80
2023-02-04T08:53:06.353Z,4.80
2023-02-04T08:55:33.580Z,4.80
2023-02-04T08:58:01.748Z,4.70
2023-02-04T09:00:30.078Z,4.60
2023-02-04T09:02:57.447Z,4.60
2023-02-04T09:05:24.660Z,4.60
2023-02-04T09:07:51.897Z,4.60
2023-02-04T09:10:19.261Z,4.70
2023-02-04T09:12:46.539Z,4.80
2023-02-04T09:15:14.274Z,4.80
2023-02-04T09:17:43.808Z,5.00
2023-02-04T09:20:11.607Z,5.20
2023-02-04T09:22:38.898Z,5.30
2023-02-04T09:25:06.584Z,5.40
2023-02-04T09:27:33.895Z,5.40
2023-02-04T09:30:01.062Z,5.50
2023-02-04T09:32:28.323Z,5.30
2023-02-04T09:34:55.511Z,5.30
2023-02-04T09:37:24.331Z,5.30
2023-02-04T09:39:51.543Z,5.30
2023-02-04T09:42:26.388Z,5.20
2023-02-04T09:44:53.818Z,5.20
2023-02-04T09:47:25.057Z,5.30
2023-02-04T09:49:52.609Z,5.10
2023-02-04T09:52:20.835Z,5.10
2023-02-04T09:54:48.017Z,5.10
2023-02-04T09:57:19.875Z,5.20
2023-02-04T09:59:47.351Z,5.30
2023-02-04T10:02:22.080Z,5.50
2023-02-04T10:04:51.409Z,5.50
2023-02-04T10:07:25.030Z,5.60
2023-02-04T10:09:55.582Z,5.50
2023-02-04T10:12:22.980Z,5.40
2023-02-04T10:14:50.320Z,5.40
2023-02-04T10:17:21.939Z,5.40
2023-02-04T10:19:49.838Z,5.40
2023-02-04T10:22:20.472Z,5.40
2023-02-04T10:24:47.791Z,5.20
2023-02-04T10:27:17.935Z,5.20
2023-02-04T10:29:56.968Z,5.20
2023-02-04T10:32:29.827Z,5.30
2023-02-04T10:35:00.730Z,5.20
2023-02-04T10:37:28.029Z,5.00
2023-02-04T10:39:55.291Z,4.80
2023-02-04T10:42:27.662Z,4.60
2023-02-04T10:44:55.273Z,4.50
2023-02-04T10:47:25.382Z,4.50
2023-02-04T10:50:05.678Z,4.50
2023-02-04T10:52:41.846Z,4.50
2023-02-04T10:55:15.558Z,4.40
2023-02-04T10:57:45.703Z,4.40
2023-02-04T11:00:19.336Z,4.40
2023-02-04T11:03:05.014Z,4.30
2023-02-04T11:05:36.494Z,4.20
2023-02-04T11:08:20.561Z,4.30
2023-02-04T11:10:51.498Z,4.40
2023-02-04T11:13:39.476Z,4.50
2023-02-04T11:16:09.798Z,4.80
2023-02-04T11:18:55.253Z,4.90
2023-02-04T11:21:34.590Z,4.70
2023-02-04T11:24:20.636Z,4.80
2023-02-04T11:27:19.608Z,4.80
2023-02-04T11:29:47.874Z,4.80
2023-02-04T11:32:36.003Z,5.00
2023-02-04T11:35:28.568Z,5.00
2023-02-04T11:37:56.560Z,5.10
2023-02-04T11:40:28.547Z,5.10
2023-02-04T11:43:16.024Z,5.10
2023-02-04T11:45:43.899Z,5.30
2023-02-04T11:48:18.523Z,5.50
2023-02-04T11:51:00.003Z,5.50
2023-02-04T11:53:34.126Z,5.60
2023-02-04T11:56:01.421Z,5.60
2023-02-04T11:58:31.013Z,5.70
2023-02-04T12:00:58.792Z,5.70
2023-02-04T12:03:30.940Z,5.60
2023-02-04T12:05:59.253Z,5.60
2023-02-04T12:08:30.573Z,5.50
2023-02-04T12:11:12.425Z,5.40
2023-02-04T12:13:52.975Z,5.30
2023-02-04T12:16:20.473Z,5.30
2023-02-04T12:18:47.816Z,5.30
2023-02-04T12:21:15.326Z,5.20
2023-02-04T12:23:42.806Z,5.20
2023-02-04T12:26:10.366Z,5.20
2023-02-04T12:28:37.731Z,5.30
2023-02-04T12:31:05.045Z,5.30
2023-02-04T12:33:32.348Z,5.40
2023-02-04T12:35:59.571Z,5.40
2023-02-04T12:38:27.871Z,5.40
2023-02-04T12:40:55.080Z,5.40
2023-02-04T12:43:22.323Z,5.30
2023-02-04T12:45:49.961Z,5.20
2023-02-04T12:48:17.424Z,5.30
2023-02-04T12:50:44.699Z,5.40
2023-02-04T12:53:11.895Z,5.50
2023-02-04T12:55:39.621Z,5.50
2023-02-04T12:58:06.844Z,5.60
2023-02-04T13:00:34.177Z,5.60
2023-02-04T13:03:01.423Z,5.60
2023-02-04T13:05:28.743Z,5.60
2023-02-04T13:07:56.001Z,5.70
2023-02-04T13:10:24.016Z,5.80
2023-02-04T13:12:51.698Z,5.80
2023-02-04T13:15:19.102Z,5.90
2023-02-04T13:17:46.381Z,6.00
2023-02-04T13:20:13.669Z,6.00
2023-02-04T13:22:40.934Z,6.00
2023-02-04T13:25:09.473Z,5.90
2023-02-04T13:27:36.740Z,5.90
2023-02-04T13:30:06.302Z,5.90
2023-02-04T13:32:33.577Z,5.90
2023-02-04T13:35:00.825Z,5.90
2023-02-04T13:37:27.976Z,5.90
2023-02-04T13:39:55.177Z,5.80
2023-02-04T13:42:22.453Z,5.70
2023-02-04T13:44:49.652Z,5.70
2023-02-04T13:47:17.043Z,5.70
2023-02-04T13:49:44.236Z,5.60
2023-02-04T13:52:11.500Z,5.50
2023-02-04T13:54:38.739Z,5.30
2023-02-04T13:57:06.050Z,5.30
2023-02-04T13:59:33.281Z,5.10
2023-02-04T14:02:00.573Z,5.10
2023-02-04T14:04:27.939Z,5.10
2023-02-04T14:06:56.314Z,5.00
2023-02-04T14:09:25.330Z,5.10
2023-02-04T14:11:52.533Z,5.00
2023-02-04T14:14:19.769Z,4.90
2023-02-04T14:16:48.163Z,4.90
2023-02-04T14:19:15.461Z,4.90
2023-02-04T14:21:42.645Z,4.90
2023-02-04T14:24:09.921Z,4.80
2023-02-04T14:26:37.102Z,4.80
2023-02-04T14:29:04.690Z,4.90
2023-02-04T14:31:32.673Z,4.80
2023-02-04T14:33:59.849Z,5.00
2023-02-04T14:36:27.037Z,5.10
2023-02-04T14:38:54.320Z,5.10
2023-02-04T14:41:21.639Z,4.90
2023-02-04T14:43:48.899Z,4.80
2023-02-04T14:46:16.297Z,4.60
2023-02-04T14:48:45.379Z,4.60
2023-02-04T14:51:12.690Z,4.70
2023-02-04T14:53:44.004Z,4.70
2023-02-04T14:56:13.655Z,4.80
2023-02-04T14:58:40.887Z,4.80
2023-02-04T15:01:08.124Z,4.80
2023-02-04T15:03:35.341Z,4.70
2023-02-04T15:06:02.632Z,4.60
2023-02-04T15:08:32.705Z,4.40
2023-02-04T15:10:59.971Z,4.40
2023-02-04T15:13:28.582Z,4.50
2023-02-04T15:15:55.784Z,4.60
2023-02-04T15:18:23.185Z,4.60
2023-02-04T15:20:50.362Z,4.60
2023-02-04T15:23:18.110Z,4.50
2023-02-04T15:25:45.407Z,4.50
2023-02-04T15:28:13.041Z,4.40
2023-02-04T15:30:40.359Z,4.50
2023-02-04T15:33:07.597Z,4.50
2023-02-04T15:35:34.831Z,4.50
2023-02-04T15:38:02.018Z,4.60
2023-02-04T15:40:29.933Z,4.60
2023-02-04T15:42:57.804Z,4.60
2023-02-04T15:45:25.066Z,4.60
2023-02-04T15:47:52.245Z,4.70
2023-02-04T15:50:19.599Z,4.70
2023-02-04T15:52:46.994Z,4.70
2023-02-04T15:55:14.225Z,4.70
2023-02-04T15:57:41.483Z,4.60
2023-02-04T16:00:09.208Z,4.60
2023-02-04T16:02:36.527Z,4.50
2023-02-04T16:05:03.950Z,4.40
2023-02-04T16:07:31.191Z,4.30
2023-02-04T16:09:58.513Z,4.30
2023-02-04T16:12:25.757Z,4.40
2023-02-04T16:14:53.094Z,4.40
2023-02-04T16:17:20.297Z,4.30
2023-02-04T16:19:47.621Z,4.30
2023-02-04T16:22:14.825Z,4.30
2023-02-04T16:24:42.483Z,4.30
2023-02-04T16:27:09.708Z,4.30
2023-02-04T16:29:36.924Z,4.20
2023-02-04T16:32:04.228Z,4.10
2023-02-04T16:34:31.707Z,4.10
2023-02-04T16:36:58.941Z,4.10
2023-02-04T16:39:26.178Z,4.10
2023-02-04T16:41:53.407Z,4.10
2023-02-04T16:44:20.608Z,4.00
2023-02-04T16:46:49.498Z,3.90
2023-02-04T16:49:17.609Z,3.90
2023-02-04T16:51:44.871Z,3.90
2023-02-04T16:54:12.193Z,3.80
2023-02-04T16:56:39.368Z,3.90
2023-02-04T16:59:06.597Z,3.90
2023-02-04T17:01:33.819Z,3.90
2023-02-04T17:04:01.170Z,3.90
2023-02-04T17:06:30.580Z,3.90
2023-02-04T17:08:58.187Z,3.90
2023-02-04T17:11:28.883Z,3.90
2023-02-04T17:14:04.960Z,4.00
2023-02-04T17:16:32.952Z,3.90
2023-02-04T17:19:00.396Z,3.80
2023-02-04T17:21:29.740Z,3.70
2023-02-04T17:24:00.126Z,3.60
2023-02-04T17:26:27.278Z,3.70
2023-02-04T17:28:54.467Z,3.60
2023-02-04T17:31:22.826Z,3.50
2023-02-04T17:33:50.034Z,3.60
2023-02-04T17:36:17.222Z,3.60
2023-02-04T17:38:44.435Z,3.60
2023-02-04T17:41:11.605Z,3.50
2023-02-04T17:43:38.853Z,3.50
2023-02-04T17:46:06.048Z,3.60
2023-02-04T17:48:34.398Z,3.50
2023-02-04T17:51:01.645Z,3.50
2023-02-04T17:53:28.899Z,3.50
2023-02-04T17:55:56.134Z,3.40
2023-02-04T17:58:25.200Z,3.40
2023-02-04T18:00:53.745Z,3.40
2023-02-04T18:03:23.522Z,3.40
2023-02-04T18:05:53.069Z,3.40
2023-02-04T18:08:27.300Z,3.40
2023-02-04T18:10:55.414Z,3.40
2023-02-04T18:13:34.296Z,3.30
2023-02-04T18:16:09.999Z,3.30
2023-02-04T18:18:39.595Z,3.30
2023-02-04T18:21:24.656Z,3.20
2023-02-04T18:23:56.686Z,3.20
2023-02-04T18:26:25.779Z,3.20
2023-02-04T18:28:53.296Z,3.20
2023-02-04T18:31:34.682Z,3.10
2023-02-04T18:34:13.412Z,2.90
2023-02-04T18:36:40.592Z,2.90
2023-02-04T18:39:26.039Z,2.80
2023-02-04T18:41:53.253Z,2.80
2023-02-04T18:44:33.195Z,2.70
2023-02-04T18:47:04.359Z,2.70
2023-02-04T18:49:37.004Z,2.70
2023-02-04T18:52:17.617Z,2.70
2023-02-04T18:54:50.570Z,2.70
2023-02-04T18:57:36.266Z,2.60
2023-02-04T19:00:09.353Z,2.60
2023-02-04T19:02:39.537Z,2.60
2023-02-04T19:05:33.949Z,2.60
2023-02-04T19:08:04.151Z,2.70
2023-02-04T19:10:37.613Z,2.60
2023-02-04T19:13:26.137Z,2.60
2023-02-04T19:16:25.491Z,2.60
2023-02-04T19:18:56.909Z,2.60
2023-02-04T19:21:28.480Z,2.60
2023-02-04T19:24:17.695Z,2.50
2023-02-04T19:26:58.099Z,2.50
2023-02-04T19:29:27.432Z,2.40
2023-02-04T19:31:59.007Z,2.40
2023-02-04T19:34:36.836Z,2.30
2023-02-04T19:37:26.630Z,2.30
2023-02-04T19:39:55.248Z,2.30
2023-02-04T19:42:35.974Z,2.20
2023-02-04T19:45:25.372Z,2.20
2023-02-04T19:47:54.866Z,2.20
2023-02-04T19:50:34.924Z,2.20
2023-02-04T19:53:22.711Z,2.20
2023-02-04T19:55:51.838Z,2.20
2023-02-04T19:58:28.590Z,2.10
2023-02-04T20:00:58.999Z,2.10
2023-02-04T20:03:47.353Z,2.10
2023-02-04T20:06:17.772Z,2.10
2023-02-04T20:08:49.672Z,2.00
2023-02-04T20:11:32.974Z,2.00
2023-02-04T20:14:15.047Z,2.00
2023-02-04T20:17:26.831Z,1.90
2023-02-04T20:19:54.256Z,1.90
2023-02-04T20:22:22.036Z,1.80
2023-02-04T20:25:00.029Z,1.80
2023-02-04T20:27:35.877Z,1.80
2023-02-04T20:30:11.708Z,1.80
2023-02-04T20:32:47.500Z,1.80
2023-02-04T20:35:20.484Z,1.70
2023-02-04T20:37:54.074Z,1.70
2023-02-04T20:40:21.255Z,1.70
2023-02-04T20:42:56.666Z,1.70
2023-02-04T20:45:33.837Z,1.70
2023-02-04T20:48:34.765Z,1.70
2023-02-04T20:51:04.583Z,1.70
2023-02-04T20:53:40.138Z,1.60
2023-02-04T20:56:23.531Z,1.60
2023-02-04T20:58:54.143Z,1.50
2023-02-04T21:01:43.995Z,1.50
2023-02-04T21:04:16.978Z,1.50
2023-02-04T21:06:44.779Z,1.40
2023-02-04T21:09:23.278Z,1.40
2023-02-04T21:11:52.022Z,1.40
2023-02-04T21:14:19.280Z,1.40
2023-02-04T21:16:46.574Z,1.40
2023-02-04T21:19:14.941Z,1.50
2023-02-04T21:21:42.478Z,1.50
2023-02-04T21:24:10.014Z,1.60
2023-02-04T21:26:37.530Z,1.60
2023-02-04T21:29:05.374Z,1.60
2023-02-04T21:31:32.947Z,1.70
2023-02-04T21:34:00.489Z,1.70
2023-02-04T21:36:27.927Z,1.70
2023-02-04T21:38:56.612Z,1.70
2023-02-04T21:41:24.762Z,1.70
2023-02-04T21:43:52.136Z,1.70
2023-02-04T21:46:20.274Z,1.80
2023-02-04T21:48:47.609Z,1.80
2023-02-04T21:51:15.449Z,1.80
2023-02-04T21:53:44.175Z,1.80
2023-02-04T21:56:11.454Z,1.80
2023-02-04T21:58:38.809Z,1.90
2023-02-04T22:01:06.216Z,1.90
2023-02-04T22:03:33.597Z,1.90
2023-02-04T22:06:00.871Z,2.00
2023-02-04T22:08:28.101Z,2.00
2023-02-04T22:10:55.569Z,2.00
2023-02-04T22:13:22.782Z,2.00
2023-02-04T22:15:49.999Z,2.00
2023-02-04T22:18:17.249Z,2.00
2023-02-04T22:20:44.483Z,2.10
2023-02-04T22:23:11.770Z,2.10
2023-02-04T22:25:39.047Z,2.10
2023-02-04T22:28:06.290Z,2.00
2023-02-04T22:30:33.686Z,2.00
2023-02-04T22:33:02.298Z,2.10
2023-02-04T22:35:29.881Z,2.00
2023-02-04T22:37:59.992Z,2.10
2023-02-04T22:40:28.365Z,2.00
2023-02-04T22:42:55.551Z,2.00
2023-02-04T22:45:22.756Z,2.00
2023-02-04T22:47:50.488Z,1.90
2023-02-04T22:50:17.757Z,1.90
2023-02-04T22:52:45.031Z,1.80
2023-02-04T22:55:12.266Z,1.80
2023-02-04T22:57:39.490Z,1.80
2023-02-04T23:00:09.167Z,1.70
2023-02-04T23:02:36.480Z,1.70
2023-02-04T23:05:04.377Z,1.60
2023-02-04T23:07:32.159Z,1.60
2023-02-04T23:09:59.546Z,1.60
2023-02-04T23:12:26.759Z,1.50
2023-02-04T23:14:54.128Z,1.50
2023-02-04T23:17:21.422Z,1.50
2023-02-04T23:19:48.971Z,1.40
2023-02-04T23:22:16.903Z,1.40
2023-02-04T23:24:44.506Z,1.40
2023-02-04T23:27:12.097Z,1.40
2023-02-04T23:29:40.112Z,1.40
2023-02-04T23:32:08.896Z,1.30
2023-02-04T23:34:36.366Z,1.30
2023-02-04T23:37:03.649Z,1.20
2023-02-04T23:39:31.118Z,1.20
2023-02-04T23:41:58.490Z,1.20
2023-02-04T23:44:25.909Z,1.20
2023-02-04T23:46:53.214Z,1.20
2023-02-04T23:49:20.478Z,1.10
2023-02-04T23:51:47.699Z,1.10
2023-02-04T23:54:15.129Z,1.00
2023-02-04T23:56:42.562Z,1.00
2023-02-04T23:59:09.877Z,1.00
